sensor_id;sensor_type;location;lat;lon;timestamp;P1;durP1;ratioP1;P2;durP2;ratioP2
18623;SDS011;9441;51.420;7.036;2023-03-12T00:00:37;6.20;;;3.83;;
18623;SDS011;9441;51.420;7.036;2023-03-12T00:01:38;8.63;;;3.67;;
18623;SDS011;9441;51.420;7.036;2023-03-12T00:02:41;9.10;;;3.87;;
18623;SDS011;9441;51.420;7.036;2023-03-12T00:03:42;7.30;;;4.03;;
18623;SDS011;9441;51.420;7.036;2023-03-12T00:04:45;6.07;;;3.80;;
18623;SDS011;9441;51.420;7.036;2023-03-12T00:05:46;13.37;;;4.23;;
18623;SDS011;9441;51.420;7.036;2023-03-12T00:06:48;6.93;;;3.90;;
18623;SDS011;9441;51.420;7.036;2023-03-12T00:07:50;9.93;;;4.33;;
18623;SDS011;9441;51.420;7.036;2023-03-12T00:08:52;9.57;;;3.90;;
18623;SDS011;9441;51.420;7.036;2023-03-12T00:09:53;5.93;;;3.80;;
18623;SDS011;9441;51.420;7.036;2023-03-12T00:10:56;10.00;;;4.20;;
18623;SDS011;9441;51.420;7.036;2023-03-12T00:11:57;7.97;;;3.80;;
18623;SDS011;9441;51.420;7.036;2023-03-12T00:12:59;9.90;;;4.30;;
18623;SDS011;9441;51.420;7.036;2023-03-12T00:14:02;11.03;;;4.23;;
18623;SDS011;9441;51.420;7.036;2023-03-12T00:15:04;8.17;;;3.90;;
18623;SDS011;9441;51.420;7.036;2023-03-12T00:16:09;6.80;;;3.63;;
18623;SDS011;9441;51.420;7.036;2023-03-12T00:17:10;5.27;;;4.00;;
18623;SDS011;9441;51.420;7.036;2023-03-12T00:18:13;7.33;;;3.77;;
18623;SDS011;9441;51.420;7.036;2023-03-12T00:19:14;7.93;;;3.67;;
18623;SDS011;9441;51.420;7.036;2023-03-12T00:20:17;11.37;;;3.70;;
18623;SDS011;9441;51.420;7.036;2023-03-12T00:21:19;7.03;;;3.80;;
18623;SDS011;9441;51.420;7.036;2023-03-12T00:22:21;7.37;;;3.87;;
18623;SDS011;9441;51.420;7.036;2023-03-12T00:23:24;8.30;;;4.30;;
18623;SDS011;9441;51.420;7.036;2023-03-12T00:24:27;8.57;;;4.37;;
18623;SDS011;9441;51.420;7.036;2023-03-12T00:25:28;12.20;;;3.90;;
18623;SDS011;9441;51.420;7.036;2023-03-12T00:26:30;6.57;;;3.90;;
18623;SDS011;9441;51.420;7.036;2023-03-12T00:27:32;7.83;;;3.70;;
18623;SDS011;9441;51.420;7.036;2023-03-12T00:28:34;9.10;;;4.10;;
18623;SDS011;9441;51.420;7.036;2023-03-12T00:29:36;11.83;;;5.80;;
18623;SDS011;9441;51.420;7.036;2023-03-12T00:30:38;16.53;;;10.03;;
18623;SDS011;9441;51.420;7.036;2023-03-12T00:31:41;8.63;;;4.90;;
18623;SDS011;9441;51.420;7.036;2023-03-12T00:32:43;10.90;;;5.37;;
18623;SDS011;9441;51.420;7.036;2023-03-12T00:33:45;7.33;;;4.93;;
18623;SDS011;9441;51.420;7.036;2023-03-12T00:34:51;12.07;;;5.03;;
18623;SDS011;9441;51.420;7.036;2023-03-12T00:35:53;9.80;;;4.73;;
18623;SDS011;9441;51.420;7.036;2023-03-12T00:36:56;10.23;;;3.87;;
18623;SDS011;9441;51.420;7.036;2023-03-12T00:37:57;7.37;;;3.93;;
18623;SDS011;9441;51.420;7.036;2023-03-12T00:39:00;10.03;;;3.80;;
18623;SDS011;9441;51.420;7.036;2023-03-12T00:40:02;7.93;;;3.90;;
18623;SDS011;9441;51.420;7.036;2023-03-12T00:41:05;10.27;;;4.30;;
18623;SDS011;9441;51.420;7.036;2023-03-12T00:42:06;7.43;;;3.70;;
18623;SDS011;9441;51.420;7.036;2023-03-12T00:43:09;8.43;;;4.13;;
18623;SDS011;9441;51.420;7.036;2023-03-12T00:44:10;7.30;;;3.70;;
18623;SDS011;9441;51.420;7.036;2023-03-12T00:45:13;5.80;;;3.73;;
18623;SDS011;9441;51.420;7.036;2023-03-12T00:46:14;9.80;;;4.20;;
18623;SDS011;9441;51.420;7.036;2023-03-12T00:47:18;7.83;;;3.70;;
18623;SDS011;9441;51.420;7.036;2023-03-12T00:48:20;10.97;;;3.90;;
18623;SDS011;9441;51.420;7.036;2023-03-12T00:49:22;6.00;;;3.60;;
18623;SDS011;9441;51.420;7.036;2023-03-12T00:50:24;8.57;;;3.97;;
18623;SDS011;9441;51.420;7.036;2023-03-12T00:51:26;8.93;;;3.90;;
18623;SDS011;9441;51.420;7.036;2023-03-12T00:52:27;6.90;;;3.60;;
18623;SDS011;9441;51.420;7.036;2023-03-12T00:53:30;8.37;;;3.80;;
18623;SDS011;9441;51.420;7.036;2023-03-12T00:54:31;8.47;;;4.10;;
18623;SDS011;9441;51.420;7.036;2023-03-12T00:55:34;12.50;;;4.23;;
18623;SDS011;9441;51.420;7.036;2023-03-12T00:56:35;5.97;;;3.40;;
18623;SDS011;9441;51.420;7.036;2023-03-12T00:57:37;7.97;;;3.93;;
18623;SDS011;9441;51.420;7.036;2023-03-12T00:58:39;8.53;;;3.67;;
18623;SDS011;9441;51.420;7.036;2023-03-12T00:59:42;11.73;;;3.70;;
18623;SDS011;9441;51.420;7.036;2023-03-12T01:00:43;4.83;;;3.50;;
18623;SDS011;9441;51.420;7.036;2023-03-12T01:01:46;5.03;;;3.10;;
18623;SDS011;9441;51.420;7.036;2023-03-12T01:02:49;8.87;;;3.50;;
18623;SDS011;9441;51.420;7.036;2023-03-12T01:03:51;10.50;;;3.70;;
18623;SDS011;9441;51.420;7.036;2023-03-12T01:04:52;6.87;;;3.57;;
18623;SDS011;9441;51.420;7.036;2023-03-12T01:05:55;8.13;;;3.40;;
18623;SDS011;9441;51.420;7.036;2023-03-12T01:06:56;6.10;;;3.37;;
18623;SDS011;9441;51.420;7.036;2023-03-12T01:07:58;10.07;;;3.50;;
18623;SDS011;9441;51.420;7.036;2023-03-12T01:09:00;6.00;;;3.57;;
18623;SDS011;9441;51.420;7.036;2023-03-12T01:10:04;8.17;;;2.97;;
18623;SDS011;9441;51.420;7.036;2023-03-12T01:11:06;9.23;;;3.50;;
18623;SDS011;9441;51.420;7.036;2023-03-12T01:12:08;10.40;;;3.23;;
18623;SDS011;9441;51.420;7.036;2023-03-12T01:13:10;6.97;;;3.23;;
18623;SDS011;9441;51.420;7.036;2023-03-12T01:14:12;10.00;;;3.03;;
18623;SDS011;9441;51.420;7.036;2023-03-12T01:15:16;4.53;;;2.77;;
18623;SDS011;9441;51.420;7.036;2023-03-12T01:16:18;7.17;;;3.10;;
18623;SDS011;9441;51.420;7.036;2023-03-12T01:17:20;5.73;;;3.03;;
18623;SDS011;9441;51.420;7.036;2023-03-12T01:18:23;7.93;;;2.90;;
18623;SDS011;9441;51.420;7.036;2023-03-12T01:19:25;7.63;;;3.07;;
18623;SDS011;9441;51.420;7.036;2023-03-12T01:20:27;6.37;;;2.90;;
18623;SDS011;9441;51.420;7.036;2023-03-12T01:21:29;8.73;;;3.33;;
18623;SDS011;9441;51.420;7.036;2023-03-12T01:22:32;6.83;;;3.10;;
18623;SDS011;9441;51.420;7.036;2023-03-12T01:23:33;8.60;;;3.10;;
18623;SDS011;9441;51.420;7.036;2023-03-12T01:24:35;12.03;;;3.20;;
18623;SDS011;9441;51.420;7.036;2023-03-12T01:25:39;5.53;;;3.13;;
18623;SDS011;9441;51.420;7.036;2023-03-12T01:26:41;10.87;;;2.80;;
18623;SDS011;9441;51.420;7.036;2023-03-12T01:27:42;5.37;;;2.97;;
18623;SDS011;9441;51.420;7.036;2023-03-12T01:28:45;5.90;;;2.80;;
18623;SDS011;9441;51.420;7.036;2023-03-12T01:29:46;6.70;;;3.13;;
18623;SDS011;9441;51.420;7.036;2023-03-12T01:30:48;7.23;;;3.33;;
18623;SDS011;9441;51.420;7.036;2023-03-12T01:31:51;13.10;;;3.03;;
18623;SDS011;9441;51.420;7.036;2023-03-12T01:32:52;7.97;;;3.03;;
18623;SDS011;9441;51.420;7.036;2023-03-12T01:33:56;9.33;;;3.23;;
18623;SDS011;9441;51.420;7.036;2023-03-12T01:34:58;6.67;;;2.97;;
18623;SDS011;9441;51.420;7.036;2023-03-12T01:36:00;5.77;;;2.97;;
18623;SDS011;9441;51.420;7.036;2023-03-12T01:37:02;7.57;;;3.03;;
18623;SDS011;9441;51.420;7.036;2023-03-12T01:38:04;5.23;;;3.20;;
18623;SDS011;9441;51.420;7.036;2023-03-12T01:39:05;7.03;;;3.10;;
18623;SDS011;9441;51.420;7.036;2023-03-12T01:40:10;5.70;;;2.80;;
18623;SDS011;9441;51.420;7.036;2023-03-12T01:41:14;5.63;;;3.30;;
18623;SDS011;9441;51.420;7.036;2023-03-12T01:42:16;4.20;;;2.63;;
18623;SDS011;9441;51.420;7.036;2023-03-12T01:43:25;5.87;;;2.87;;
18623;SDS011;9441;51.420;7.036;2023-03-12T01:44:30;8.10;;;2.80;;
18623;SDS011;9441;51.420;7.036;2023-03-12T01:46:52;4.80;;;2.70;;
18623;SDS011;9441;51.420;7.036;2023-03-12T01:47:57;8.17;;;2.93;;
18623;SDS011;9441;51.420;7.036;2023-03-12T01:49:01;7.10;;;2.57;;
18623;SDS011;9441;51.420;7.036;2023-03-12T01:50:05;6.13;;;2.80;;
18623;SDS011;9441;51.420;7.036;2023-03-12T01:51:08;11.00;;;3.57;;
18623;SDS011;9441;51.420;7.036;2023-03-12T01:52:11;4.20;;;2.57;;
18623;SDS011;9441;51.420;7.036;2023-03-12T01:53:19;4.73;;;2.90;;
18623;SDS011;9441;51.420;7.036;2023-03-12T01:54:22;6.43;;;3.60;;
18623;SDS011;9441;51.420;7.036;2023-03-12T01:55:24;8.03;;;2.83;;
18623;SDS011;9441;51.420;7.036;2023-03-12T01:56:27;8.43;;;3.30;;
18623;SDS011;9441;51.420;7.036;2023-03-12T01:57:33;8.97;;;2.70;;
18623;SDS011;9441;51.420;7.036;2023-03-12T01:58:35;5.33;;;2.50;;
18623;SDS011;9441;51.420;7.036;2023-03-12T01:59:40;5.67;;;2.70;;
18623;SDS011;9441;51.420;7.036;2023-03-12T02:00:42;7.57;;;2.83;;
18623;SDS011;9441;51.420;7.036;2023-03-12T02:01:44;6.23;;;2.40;;
18623;SDS011;9441;51.420;7.036;2023-03-12T02:02:46;6.37;;;2.63;;
18623;SDS011;9441;51.420;7.036;2023-03-12T02:03:53;5.40;;;2.47;;
18623;SDS011;9441;51.420;7.036;2023-03-12T02:05:02;10.33;;;2.50;;
18623;SDS011;9441;51.420;7.036;2023-03-12T02:06:07;6.83;;;2.63;;
18623;SDS011;9441;51.420;7.036;2023-03-12T02:07:11;6.37;;;2.50;;
18623;SDS011;9441;51.420;7.036;2023-03-12T02:08:14;4.70;;;2.53;;
18623;SDS011;9441;51.420;7.036;2023-03-12T02:09:16;7.43;;;2.53;;
18623;SDS011;9441;51.420;7.036;2023-03-12T02:10:21;6.47;;;2.70;;
18623;SDS011;9441;51.420;7.036;2023-03-12T02:11:23;6.80;;;2.60;;
18623;SDS011;9441;51.420;7.036;2023-03-12T02:12:25;11.03;;;2.67;;
18623;SDS011;9441;51.420;7.036;2023-03-12T02:13:26;4.77;;;2.50;;
18623;SDS011;9441;51.420;7.036;2023-03-12T02:14:29;7.50;;;2.67;;
18623;SDS011;9441;51.420;7.036;2023-03-12T02:15:30;7.53;;;2.67;;
18623;SDS011;9441;51.420;7.036;2023-03-12T02:16:34;9.20;;;2.83;;
18623;SDS011;9441;51.420;7.036;2023-03-12T02:17:35;6.33;;;2.73;;
18623;SDS011;9441;51.420;7.036;2023-03-12T02:18:38;5.40;;;2.50;;
18623;SDS011;9441;51.420;7.036;2023-03-12T02:19:42;6.70;;;2.93;;
18623;SDS011;9441;51.420;7.036;2023-03-12T02:20:51;4.00;;;2.60;;
18623;SDS011;9441;51.420;7.036;2023-03-12T02:21:57;9.07;;;3.00;;
18623;SDS011;9441;51.420;7.036;2023-03-12T02:23:03;7.40;;;2.67;;
18623;SDS011;9441;51.420;7.036;2023-03-12T02:24:07;7.57;;;2.40;;
18623;SDS011;9441;51.420;7.036;2023-03-12T02:25:17;6.40;;;2.63;;
18623;SDS011;9441;51.420;7.036;2023-03-12T02:26:18;7.67;;;2.37;;
18623;SDS011;9441;51.420;7.036;2023-03-12T02:27:22;5.03;;;2.33;;
18623;SDS011;9441;51.420;7.036;2023-03-12T02:28:24;9.90;;;2.33;;
18623;SDS011;9441;51.420;7.036;2023-03-12T02:29:28;6.13;;;2.73;;
18623;SDS011;9441;51.420;7.036;2023-03-12T02:30:31;5.13;;;2.20;;
18623;SDS011;9441;51.420;7.036;2023-03-12T02:31:36;9.90;;;3.10;;
18623;SDS011;9441;51.420;7.036;2023-03-12T02:32:38;5.07;;;2.50;;
18623;SDS011;9441;51.420;7.036;2023-03-12T02:33:41;7.23;;;2.50;;
18623;SDS011;9441;51.420;7.036;2023-03-12T02:34:42;5.43;;;2.43;;
18623;SDS011;9441;51.420;7.036;2023-03-12T02:35:45;10.47;;;2.80;;
18623;SDS011;9441;51.420;7.036;2023-03-12T02:36:47;6.93;;;2.40;;
18623;SDS011;9441;51.420;7.036;2023-03-12T02:37:50;5.97;;;2.67;;
18623;SDS011;9441;51.420;7.036;2023-03-12T02:38:52;7.17;;;2.77;;
18623;SDS011;9441;51.420;7.036;2023-03-12T02:39:57;4.60;;;2.30;;
18623;SDS011;9441;51.420;7.036;2023-03-12T02:41:02;8.53;;;2.70;;
18623;SDS011;9441;51.420;7.036;2023-03-12T02:42:06;6.17;;;3.10;;
18623;SDS011;9441;51.420;7.036;2023-03-12T02:43:08;7.27;;;2.63;;
18623;SDS011;9441;51.420;7.036;2023-03-12T02:44:11;5.20;;;2.57;;
18623;SDS011;9441;51.420;7.036;2023-03-12T02:45:14;6.33;;;2.43;;
18623;SDS011;9441;51.420;7.036;2023-03-12T02:46:16;7.13;;;2.90;;
18623;SDS011;9441;51.420;7.036;2023-03-12T02:47:18;9.27;;;2.30;;
18623;SDS011;9441;51.420;7.036;2023-03-12T02:48:19;4.07;;;2.43;;
18623;SDS011;9441;51.420;7.036;2023-03-12T02:49:23;9.03;;;2.40;;
18623;SDS011;9441;51.420;7.036;2023-03-12T02:50:25;8.37;;;2.80;;
18623;SDS011;9441;51.420;7.036;2023-03-12T02:51:27;5.27;;;2.30;;
18623;SDS011;9441;51.420;7.036;2023-03-12T02:52:29;8.50;;;2.50;;
18623;SDS011;9441;51.420;7.036;2023-03-12T02:53:35;7.97;;;2.60;;
18623;SDS011;9441;51.420;7.036;2023-03-12T02:54:36;7.13;;;2.70;;
18623;SDS011;9441;51.420;7.036;2023-03-12T02:55:39;7.00;;;2.17;;
18623;SDS011;9441;51.420;7.036;2023-03-12T02:56:41;6.77;;;2.80;;
18623;SDS011;9441;51.420;7.036;2023-03-12T02:57:44;10.20;;;2.50;;
18623;SDS011;9441;51.420;7.036;2023-03-12T02:58:47;8.77;;;2.73;;
18623;SDS011;9441;51.420;7.036;2023-03-12T02:59:50;8.87;;;2.60;;
18623;SDS011;9441;51.420;7.036;2023-03-12T03:00:51;4.60;;;2.47;;
18623;SDS011;9441;51.420;7.036;2023-03-12T03:01:55;5.87;;;2.43;;
18623;SDS011;9441;51.420;7.036;2023-03-12T03:02:57;8.03;;;2.63;;
18623;SDS011;9441;51.420;7.036;2023-03-12T03:03:59;10.23;;;3.10;;
18623;SDS011;9441;51.420;7.036;2023-03-12T03:05:01;8.90;;;2.23;;
18623;SDS011;9441;51.420;7.036;2023-03-12T03:06:04;9.33;;;2.40;;
18623;SDS011;9441;51.420;7.036;2023-03-12T03:07:05;6.63;;;2.67;;
18623;SDS011;9441;51.420;7.036;2023-03-12T03:08:08;6.67;;;2.63;;
18623;SDS011;9441;51.420;7.036;2023-03-12T03:09:09;6.20;;;2.40;;
18623;SDS011;9441;51.420;7.036;2023-03-12T03:10:11;4.17;;;2.20;;
18623;SDS011;9441;51.420;7.036;2023-03-12T03:11:14;9.37;;;2.33;;
18623;SDS011;9441;51.420;7.036;2023-03-12T03:12:18;4.00;;;2.20;;
18623;SDS011;9441;51.420;7.036;2023-03-12T03:13:19;7.50;;;2.43;;
18623;SDS011;9441;51.420;7.036;2023-03-12T03:14:22;5.10;;;2.50;;
18623;SDS011;9441;51.420;7.036;2023-03-12T03:15:24;5.90;;;2.50;;
18623;SDS011;9441;51.420;7.036;2023-03-12T03:16:27;8.73;;;2.90;;
18623;SDS011;9441;51.420;7.036;2023-03-12T03:17:28;6.67;;;2.67;;
18623;SDS011;9441;51.420;7.036;2023-03-12T03:18:31;8.37;;;2.73;;
18623;SDS011;9441;51.420;7.036;2023-03-12T03:19:32;4.07;;;2.30;;
18623;SDS011;9441;51.420;7.036;2023-03-12T03:20:35;5.60;;;2.20;;
18623;SDS011;9441;51.420;7.036;2023-03-12T03:21:36;6.03;;;2.27;;
18623;SDS011;9441;51.420;7.036;2023-03-12T03:22:39;4.10;;;2.40;;
18623;SDS011;9441;51.420;7.036;2023-03-12T03:23:40;5.97;;;2.50;;
18623;SDS011;9441;51.420;7.036;2023-03-12T03:24:42;7.47;;;2.53;;
18623;SDS011;9441;51.420;7.036;2023-03-12T03:25:45;6.33;;;2.70;;
18623;SDS011;9441;51.420;7.036;2023-03-12T03:26:47;9.80;;;2.83;;
18623;SDS011;9441;51.420;7.036;2023-03-12T03:27:50;5.43;;;2.60;;
18623;SDS011;9441;51.420;7.036;2023-03-12T03:28:52;7.70;;;2.90;;
18623;SDS011;9441;51.420;7.036;2023-03-12T03:29:54;6.80;;;3.00;;
18623;SDS011;9441;51.420;7.036;2023-03-12T03:30:56;8.73;;;3.10;;
18623;SDS011;9441;51.420;7.036;2023-03-12T03:32:01;6.80;;;2.63;;
18623;SDS011;9441;51.420;7.036;2023-03-12T03:33:04;5.70;;;2.60;;
18623;SDS011;9441;51.420;7.036;2023-03-12T03:34:05;10.30;;;2.47;;
18623;SDS011;9441;51.420;7.036;2023-03-12T03:35:08;10.30;;;2.40;;
18623;SDS011;9441;51.420;7.036;2023-03-12T03:36:10;4.30;;;2.33;;
18623;SDS011;9441;51.420;7.036;2023-03-12T03:37:18;6.20;;;2.07;;
18623;SDS011;9441;51.420;7.036;2023-03-12T03:38:19;4.60;;;2.40;;
18623;SDS011;9441;51.420;7.036;2023-03-12T03:39:22;6.77;;;2.57;;
18623;SDS011;9441;51.420;7.036;2023-03-12T03:40:24;6.53;;;2.70;;
18623;SDS011;9441;51.420;7.036;2023-03-12T03:41:27;6.43;;;2.47;;
18623;SDS011;9441;51.420;7.036;2023-03-12T03:42:28;6.03;;;2.60;;
18623;SDS011;9441;51.420;7.036;2023-03-12T03:43:32;7.23;;;2.70;;
18623;SDS011;9441;51.420;7.036;2023-03-12T03:44:33;5.70;;;2.50;;
18623;SDS011;9441;51.420;7.036;2023-03-12T03:45:36;6.83;;;2.50;;
18623;SDS011;9441;51.420;7.036;2023-03-12T03:46:38;8.50;;;2.33;;
18623;SDS011;9441;51.420;7.036;2023-03-12T03:47:43;5.50;;;2.50;;
18623;SDS011;9441;51.420;7.036;2023-03-12T03:48:45;4.43;;;1.97;;
18623;SDS011;9441;51.420;7.036;2023-03-12T03:49:48;6.50;;;2.47;;
18623;SDS011;9441;51.420;7.036;2023-03-12T03:50:49;6.60;;;2.50;;
18623;SDS011;9441;51.420;7.036;2023-03-12T03:51:51;7.03;;;2.60;;
18623;SDS011;9441;51.420;7.036;2023-03-12T03:52:59;5.30;;;2.27;;
18623;SDS011;9441;51.420;7.036;2023-03-12T03:54:02;9.13;;;2.50;;
18623;SDS011;9441;51.420;7.036;2023-03-12T03:55:04;4.67;;;2.50;;
18623;SDS011;9441;51.420;7.036;2023-03-12T03:56:07;4.23;;;2.30;;
18623;SDS011;9441;51.420;7.036;2023-03-12T03:57:10;7.50;;;2.80;;
18623;SDS011;9441;51.420;7.036;2023-03-12T03:58:13;5.73;;;2.50;;
18623;SDS011;9441;51.420;7.036;2023-03-12T03:59:15;8.90;;;2.67;;
18623;SDS011;9441;51.420;7.036;2023-03-12T04:00:18;10.23;;;2.43;;
18623;SDS011;9441;51.420;7.036;2023-03-12T04:01:22;4.77;;;2.30;;
18623;SDS011;9441;51.420;7.036;2023-03-12T04:02:25;7.83;;;2.60;;
18623;SDS011;9441;51.420;7.036;2023-03-12T04:03:27;9.10;;;2.47;;
18623;SDS011;9441;51.420;7.036;2023-03-12T04:04:30;4.43;;;2.10;;
18623;SDS011;9441;51.420;7.036;2023-03-12T04:05:31;7.27;;;2.47;;
18623;SDS011;9441;51.420;7.036;2023-03-12T04:06:33;6.87;;;2.30;;
18623;SDS011;9441;51.420;7.036;2023-03-12T04:07:35;6.40;;;2.70;;
18623;SDS011;9441;51.420;7.036;2023-03-12T04:08:38;6.33;;;2.40;;
18623;SDS011;9441;51.420;7.036;2023-03-12T04:09:42;6.20;;;2.20;;
18623;SDS011;9441;51.420;7.036;2023-03-12T04:10:45;7.57;;;2.30;;
18623;SDS011;9441;51.420;7.036;2023-03-12T04:11:46;11.33;;;2.60;;
18623;SDS011;9441;51.420;7.036;2023-03-12T04:12:49;7.00;;;2.20;;
18623;SDS011;9441;51.420;7.036;2023-03-12T04:13:51;9.13;;;2.67;;
18623;SDS011;9441;51.420;7.036;2023-03-12T04:14:58;6.07;;;2.17;;
18623;SDS011;9441;51.420;7.036;2023-03-12T04:16:01;5.23;;;2.37;;
18623;SDS011;9441;51.420;7.036;2023-03-12T04:17:02;8.33;;;2.50;;
18623;SDS011;9441;51.420;7.036;2023-03-12T04:18:05;6.07;;;2.53;;
18623;SDS011;9441;51.420;7.036;2023-03-12T04:19:06;8.10;;;2.57;;
18623;SDS011;9441;51.420;7.036;2023-03-12T04:20:09;5.60;;;2.43;;
18623;SDS011;9441;51.420;7.036;2023-03-12T04:21:13;5.43;;;2.50;;
18623;SDS011;9441;51.420;7.036;2023-03-12T04:22:16;4.17;;;2.20;;
18623;SDS011;9441;51.420;7.036;2023-03-12T04:23:18;8.17;;;2.43;;
18623;SDS011;9441;51.420;7.036;2023-03-12T04:24:20;5.17;;;2.23;;
18623;SDS011;9441;51.420;7.036;2023-03-12T04:25:22;10.60;;;2.70;;
18623;SDS011;9441;51.420;7.036;2023-03-12T04:26:24;5.57;;;2.50;;
18623;SDS011;9441;51.420;7.036;2023-03-12T04:27:27;9.73;;;2.47;;
18623;SDS011;9441;51.420;7.036;2023-03-12T04:28:29;6.17;;;2.47;;
18623;SDS011;9441;51.420;7.036;2023-03-12T04:29:31;6.40;;;2.53;;
18623;SDS011;9441;51.420;7.036;2023-03-12T04:30:35;6.17;;;2.60;;
18623;SDS011;9441;51.420;7.036;2023-03-12T04:31:38;6.47;;;2.50;;
18623;SDS011;9441;51.420;7.036;2023-03-12T04:32:40;6.63;;;2.40;;
18623;SDS011;9441;51.420;7.036;2023-03-12T04:33:42;7.77;;;2.57;;
18623;SDS011;9441;51.420;7.036;2023-03-12T04:34:44;8.77;;;2.60;;
18623;SDS011;9441;51.420;7.036;2023-03-12T04:35:49;5.50;;;2.40;;
18623;SDS011;9441;51.420;7.036;2023-03-12T04:36:52;6.93;;;2.60;;
18623;SDS011;9441;51.420;7.036;2023-03-12T04:37:55;7.13;;;2.40;;
18623;SDS011;9441;51.420;7.036;2023-03-12T04:38:57;7.93;;;2.50;;
18623;SDS011;9441;51.420;7.036;2023-03-12T04:40:04;4.57;;;2.43;;
18623;SDS011;9441;51.420;7.036;2023-03-12T04:41:07;5.83;;;2.43;;
18623;SDS011;9441;51.420;7.036;2023-03-12T04:42:13;4.10;;;2.20;;
18623;SDS011;9441;51.420;7.036;2023-03-12T04:43:16;6.37;;;2.70;;
18623;SDS011;9441;51.420;7.036;2023-03-12T04:44:20;6.00;;;2.50;;
18623;SDS011;9441;51.420;7.036;2023-03-12T04:45:21;4.30;;;2.17;;
18623;SDS011;9441;51.420;7.036;2023-03-12T04:46:25;4.53;;;2.57;;
18623;SDS011;9441;51.420;7.036;2023-03-12T04:47:27;5.57;;;2.60;;
18623;SDS011;9441;51.420;7.036;2023-03-12T04:48:31;4.93;;;2.17;;
18623;SDS011;9441;51.420;7.036;2023-03-12T04:49:33;4.00;;;2.30;;
18623;SDS011;9441;51.420;7.036;2023-03-12T04:50:35;5.03;;;2.57;;
18623;SDS011;9441;51.420;7.036;2023-03-12T04:51:37;5.53;;;2.50;;
18623;SDS011;9441;51.420;7.036;2023-03-12T04:52:39;9.57;;;2.30;;
18623;SDS011;9441;51.420;7.036;2023-03-12T04:53:41;5.60;;;2.70;;
18623;SDS011;9441;51.420;7.036;2023-03-12T04:54:45;8.60;;;2.87;;
18623;SDS011;9441;51.420;7.036;2023-03-12T04:55:46;7.83;;;2.33;;
18623;SDS011;9441;51.420;7.036;2023-03-12T04:56:50;6.37;;;2.40;;
18623;SDS011;9441;51.420;7.036;2023-03-12T04:57:54;6.57;;;2.37;;
18623;SDS011;9441;51.420;7.036;2023-03-12T04:58:57;4.60;;;2.30;;
18623;SDS011;9441;51.420;7.036;2023-03-12T04:59:59;5.33;;;2.70;;
18623;SDS011;9441;51.420;7.036;2023-03-12T05:01:02;11.53;;;2.40;;
18623;SDS011;9441;51.420;7.036;2023-03-12T05:02:06;5.50;;;2.30;;
18623;SDS011;9441;51.420;7.036;2023-03-12T05:03:08;6.20;;;2.23;;
18623;SDS011;9441;51.420;7.036;2023-03-12T05:04:10;6.53;;;2.50;;
18623;SDS011;9441;51.420;7.036;2023-03-12T05:05:12;8.63;;;2.53;;
18623;SDS011;9441;51.420;7.036;2023-03-12T05:06:14;5.90;;;2.30;;
18623;SDS011;9441;51.420;7.036;2023-03-12T05:07:16;8.17;;;2.57;;
18623;SDS011;9441;51.420;7.036;2023-03-12T05:08:19;4.60;;;2.20;;
18623;SDS011;9441;51.420;7.036;2023-03-12T05:09:20;6.07;;;2.30;;
18623;SDS011;9441;51.420;7.036;2023-03-12T05:10:23;9.03;;;2.17;;
18623;SDS011;9441;51.420;7.036;2023-03-12T05:11:24;3.93;;;2.20;;
18623;SDS011;9441;51.420;7.036;2023-03-12T05:12:27;5.70;;;2.50;;
18623;SDS011;9441;51.420;7.036;2023-03-12T05:13:28;5.50;;;2.40;;
18623;SDS011;9441;51.420;7.036;2023-03-12T05:14:31;7.70;;;2.57;;
18623;SDS011;9441;51.420;7.036;2023-03-12T05:15:35;7.37;;;2.20;;
18623;SDS011;9441;51.420;7.036;2023-03-12T05:16:37;7.00;;;2.50;;
18623;SDS011;9441;51.420;7.036;2023-03-12T05:17:41;5.70;;;2.30;;
18623;SDS011;9441;51.420;7.036;2023-03-12T05:18:42;5.83;;;2.23;;
18623;SDS011;9441;51.420;7.036;2023-03-12T05:19:45;4.73;;;2.30;;
18623;SDS011;9441;51.420;7.036;2023-03-12T05:20:46;6.03;;;2.60;;
18623;SDS011;9441;51.420;7.036;2023-03-12T05:21:48;5.47;;;2.40;;
18623;SDS011;9441;51.420;7.036;2023-03-12T05:22:50;6.67;;;2.40;;
18623;SDS011;9441;51.420;7.036;2023-03-12T05:23:52;4.27;;;2.20;;
18623;SDS011;9441;51.420;7.036;2023-03-12T05:24:54;5.20;;;2.30;;
18623;SDS011;9441;51.420;7.036;2023-03-12T05:25:56;8.80;;;2.30;;
18623;SDS011;9441;51.420;7.036;2023-03-12T05:26:58;8.40;;;2.80;;
18623;SDS011;9441;51.420;7.036;2023-03-12T05:28:01;6.23;;;2.47;;
18623;SDS011;9441;51.420;7.036;2023-03-12T05:29:02;5.73;;;2.60;;
18623;SDS011;9441;51.420;7.036;2023-03-12T05:30:05;4.97;;;2.60;;
18623;SDS011;9441;51.420;7.036;2023-03-12T05:31:07;9.87;;;2.47;;
18623;SDS011;9441;51.420;7.036;2023-03-12T05:32:10;10.43;;;2.70;;
18623;SDS011;9441;51.420;7.036;2023-03-12T05:33:12;8.50;;;2.60;;
18623;SDS011;9441;51.420;7.036;2023-03-12T05:34:15;3.03;;;2.37;;
18623;SDS011;9441;51.420;7.036;2023-03-12T05:35:18;3.93;;;2.53;;
18623;SDS011;9441;51.420;7.036;2023-03-12T05:36:20;7.27;;;2.63;;
18623;SDS011;9441;51.420;7.036;2023-03-12T05:37:23;7.37;;;2.30;;
18623;SDS011;9441;51.420;7.036;2023-03-12T05:38:24;5.17;;;2.53;;
18623;SDS011;9441;51.420;7.036;2023-03-12T05:39:26;7.27;;;2.67;;
18623;SDS011;9441;51.420;7.036;2023-03-12T05:40:31;5.60;;;2.40;;
18623;SDS011;9441;51.420;7.036;2023-03-12T05:41:34;5.03;;;2.27;;
18623;SDS011;9441;51.420;7.036;2023-03-12T05:42:43;4.50;;;2.47;;
18623;SDS011;9441;51.420;7.036;2023-03-12T05:43:46;7.77;;;2.90;;
18623;SDS011;9441;51.420;7.036;2023-03-12T05:44:48;6.27;;;2.60;;
18623;SDS011;9441;51.420;7.036;2023-03-12T05:45:52;6.30;;;2.43;;
18623;SDS011;9441;51.420;7.036;2023-03-12T05:46:54;7.67;;;2.73;;
18623;SDS011;9441;51.420;7.036;2023-03-12T05:47:58;8.27;;;2.87;;
18623;SDS011;9441;51.420;7.036;2023-03-12T05:49:03;6.73;;;2.50;;
18623;SDS011;9441;51.420;7.036;2023-03-12T05:50:07;3.87;;;2.03;;
18623;SDS011;9441;51.420;7.036;2023-03-12T05:51:10;11.43;;;3.07;;
18623;SDS011;9441;51.420;7.036;2023-03-12T05:52:13;10.17;;;2.70;;
18623;SDS011;9441;51.420;7.036;2023-03-12T05:53:15;6.07;;;3.00;;
18623;SDS011;9441;51.420;7.036;2023-03-12T05:54:20;7.37;;;2.40;;
18623;SDS011;9441;51.420;7.036;2023-03-12T05:55:24;8.83;;;2.70;;
18623;SDS011;9441;51.420;7.036;2023-03-12T05:56:27;7.23;;;2.80;;
18623;SDS011;9441;51.420;7.036;2023-03-12T05:57:29;8.83;;;2.40;;
18623;SDS011;9441;51.420;7.036;2023-03-12T05:58:33;6.03;;;2.50;;
18623;SDS011;9441;51.420;7.036;2023-03-12T05:59:35;10.20;;;2.90;;
18623;SDS011;9441;51.420;7.036;2023-03-12T06:00:39;7.40;;;3.00;;
18623;SDS011;9441;51.420;7.036;2023-03-12T06:01:41;6.00;;;2.57;;
18623;SDS011;9441;51.420;7.036;2023-03-12T06:02:44;5.37;;;2.60;;
18623;SDS011;9441;51.420;7.036;2023-03-12T06:03:45;8.30;;;2.70;;
18623;SDS011;9441;51.420;7.036;2023-03-12T06:04:49;6.13;;;2.73;;
18623;SDS011;9441;51.420;7.036;2023-03-12T06:05:50;10.43;;;2.70;;
18623;SDS011;9441;51.420;7.036;2023-03-12T06:06:56;7.50;;;2.70;;
18623;SDS011;9441;51.420;7.036;2023-03-12T06:07:58;9.90;;;3.07;;
18623;SDS011;9441;51.420;7.036;2023-03-12T06:09:00;5.07;;;2.60;;
18623;SDS011;9441;51.420;7.036;2023-03-12T06:10:03;9.83;;;2.60;;
18623;SDS011;9441;51.420;7.036;2023-03-12T06:11:05;7.97;;;2.80;;
18623;SDS011;9441;51.420;7.036;2023-03-12T06:12:07;7.93;;;2.80;;
18623;SDS011;9441;51.420;7.036;2023-03-12T06:13:09;5.23;;;2.50;;
18623;SDS011;9441;51.420;7.036;2023-03-12T06:14:11;9.43;;;2.80;;
18623;SDS011;9441;51.420;7.036;2023-03-12T06:15:14;7.40;;;2.73;;
18623;SDS011;9441;51.420;7.036;2023-03-12T06:16:16;6.90;;;2.80;;
18623;SDS011;9441;51.420;7.036;2023-03-12T06:17:19;7.87;;;2.60;;
18623;SDS011;9441;51.420;7.036;2023-03-12T06:18:20;9.53;;;2.97;;
18623;SDS011;9441;51.420;7.036;2023-03-12T06:19:23;7.87;;;2.90;;
18623;SDS011;9441;51.420;7.036;2023-03-12T06:20:26;4.43;;;2.47;;
18623;SDS011;9441;51.420;7.036;2023-03-12T06:21:29;10.67;;;3.10;;
18623;SDS011;9441;51.420;7.036;2023-03-12T06:22:31;6.90;;;2.80;;
18623;SDS011;9441;51.420;7.036;2023-03-12T06:23:33;6.57;;;3.03;;
18623;SDS011;9441;51.420;7.036;2023-03-12T06:24:35;8.53;;;2.70;;